Tiempo atmosférico en la estación meteorológica de Maspalomas, C. Insular Turismo, Las Palmas (45 m.)



Fecha
DESCASC
Temp. máxima en grados centígrados (hora)
DESCASC
Temp. mínima en grados centígrados (hora)
DESCASC
Temp. media en grados centígrados
DESCASC
Racha de viento máxima en m/sg (hora)
DESCASC
Velocidad máxima media en intervalos de 10 minutos(hora)
DESCASC
Precipitaciones diarias en mm
DESCASC
Precipitaciones de 00:00 a 06:00 en mm
DESCASC
Precipitaciones de 06:00 a 12:00 en mm
DESCASC
Precipitaciones de 12:00 a 18:00 en mm
DESCASC
Precipitaciones de 18:00 a 24:00 en mm
DESCASC
19-01-2020 22.8 (10:20) 16.8 (23:40) 19.8 11.67 (13:20) 6.67 (14:00) 0 0 0 0 0
18-01-2020 21.6 (23:20) 15.6 (01:10) 18.6 9.44 (08:50) 4.72 (16:20) 0 0 0 0 0
17-01-2020 20 (12:30) 16.3 (23:30) 18.1 10.28 (12:20) 5 (14:40) 0 0 0 0 0
16-01-2020 20.1 (11:20) 14.9 (00:00) 17.5 8.06 (15:20) 4.44 (15:00) 0 0 0 0 0
15-01-2020 20.2 (11:40) 14.9 (00:00) 17.6 6.94 (14:30) 4.72 (14:30) 0 0 0 0 0
14-01-2020 20.3 (12:40) 16.2 (00:00) 18.3 6.11 (14:00) 3.89 (14:00) 0 0 0 0 0
13-01-2020 20.6 (10:30) 17.2 (00:00) 18.9 10.28 (00:10) 5 (04:20) 0 0 0 0 0
12-01-2020 20.4 (13:50) 15.3 (00:00) 17.8 11.67 (11:40) 5.83 (11:30) 0 0 0 0 0
11-01-2020 21.7 (13:30) 14.9 (00:00) 18.3 6.67 (14:10) 3.89 (14:10) 0 0 0 0 0
10-01-2020 22 (15:30) 15.5 (00:00) 18.8 10.83 (13:20) 5 (12:50) 0 0 0 0 0
09-01-2020 21.8 (14:30) 14.8 (00:00) 18.3 9.44 (01:40) 4.72 (02:00) 0 0 0 0 0
08-01-2020 20.7 (16:00) 16.7 (00:00) 18.7 10.83 (15:00) 5.56 (15:30) 0 0 0 0 0
07-01-2020 21.1 (14:40) 16.9 (00:00) 19 10.28 (10:20) 5 (10:00) 0 0 0 0 0
06-01-2020 21.9 (15:10) 16.7 (00:00) 19.3 9.72 (22:10) 5.28 (15:20) 0 0 0 0 0
05-01-2020 21.5 (12:20) 13.7 (00:00) 17.6 10.28 (14:20) 5.56 (14:10) 0 0 0 0 0
04-01-2020 19.8 (11:10) 15.9 (00:00) 17.8 9.72 (00:10) 5.83 (13:40) 0 0 0 0 0
03-01-2020 19.9 (15:10) 16.8 (00:00) 18.3 13.33 (13:20) 4.72 (02:50) 0 0 0 0 0
02-01-2020 19.1 (01:20) 16 (00:00) 17.6 10 (17:00) 4.72 (17:00) 0 0 0 0 0
01-01-2020 20.8 (00:40) 16.5 (00:00) 18.6 9.72 (16:50) 5.28 (13:00) 0 0 0 0 0
31-12-2019 20.6 (13:50) 14.9 (00:00) 17.8 10.83 (09:20) 4.17 (11:50) 0 0 0 0 0
30-12-2019 -- (--) -- (--) -- -- (--) -- (--) -- 0 0 -- 0
29-12-2019 23.8 (11:20) 18.8 (00:00) 21.3 8.33 (06:20) 4.17 (13:20) 0 0 0 0 0
28-12-2019 23.6 (10:30) 19.7 (00:00) 21.7 9.72 (05:40) 4.17 (04:50) 0 0 0 0 0
27-12-2019 24.1 (13:10) 20 (00:00) 22.1 11.94 (12:20) 5.28 (14:30) 0 0 0 0 0
26-12-2019 24.3 (15:50) 19.4 (00:00) 21.8 10.56 (10:20) 5.56 (10:20) 0 0 0 0 0
25-12-2019 24.3 (09:20) 19.7 (00:00) 22 8.33 (19:20) 4.17 (13:10) 0 0 0 0 0
24-12-2019 25.9 (15:10) 16.9 (00:00) 21.4 6.94 (02:40) 3.33 (03:00) 0 0 0 0 0
23-12-2019 21 (14:00) 16.8 (00:00) 18.9 9.17 (00:50) 4.44 (01:10) 0 0 0 0 0
22-12-2019 23.5 (12:40) 16.6 (00:00) 20.1 13.06 (23:00) 5.83 (23:00) 0 0 0 0 0

Gráficas

Temp. máximas Temp. mínimas Temp. medias Precipitaciones Rachas de viento máximas Velocidades máximas media en intervalos de 10 minutos

Datos horarios

Fecha y hora oficial Temperatura (ºC) Velocidad del viento (km/h) Dirección del viento Racha (km/h) Dirección de racha Precipitación (mm) Presión (hPa) Tendencia (hPa) Humedad (%)
2020-01-20 23:00:00 17.3 0 Calma 15 Sudeste 0 -- -- 64
2020-01-20 22:00:00 17.9 6 Sudeste 15 Sudoeste 0 -- -- 62
2020-01-20 21:00:00 17.9 4 Sudoeste 20 Oeste 0 -- -- 66
2020-01-20 20:00:00 18.3 9 Oeste 16 Oeste 0 -- -- 66
2020-01-20 19:00:00 18.4 10 Sudoeste 18 Sudoeste 0 -- -- 66
2020-01-20 18:00:00 19 9 Sudoeste 23 Sudoeste 0 -- -- 63
2020-01-20 17:00:00 19.9 14 Oeste 24 Oeste 0 -- -- 61
2020-01-20 16:00:00 20.3 11 Sudoeste 26 Sudoeste 0 -- -- 58
2020-01-20 15:00:00 20.9 14 Sudoeste 25 Sudoeste 0 -- -- 55
2020-01-20 14:00:00 20.8 11 Sudoeste 25 Sudoeste 0 -- -- 55
2020-01-20 13:00:00 21.1 12 Sudoeste 23 Sudoeste 0 -- -- 55
2020-01-20 12:00:00 19.9 10 Este 27 Este 0 -- -- 55
2020-01-20 11:00:00 19.4 8 Este 20 Sudeste 0 -- -- 57
2020-01-20 10:00:00 19 5 Este 7 Este 0 -- -- 60
2020-01-20 09:00:00 17.7 2 Nordeste 12 Nordeste 0 -- -- 64
2020-01-20 08:00:00 17.2 3 Nordeste 10 Este 0 -- -- 68
2020-01-20 07:00:00 17 4 Nordeste 10 Norte 0 -- -- 70
2020-01-20 06:00:00 16.7 3 Norte 12 Norte 0 -- -- 72
2020-01-20 05:00:00 15.9 6 Norte 12 Noroeste 0 -- -- 72
2020-01-20 04:00:00 15.8 5 Noroeste 9 Noroeste 0 -- -- 73
2020-01-20 03:00:00 16.1 5 Noroeste 10 Noroeste 0 -- -- 68
2020-01-20 02:00:00 15.9 2 Noroeste 9 Norte 0 -- -- 68
2020-01-20 01:00:00 16.6 4 Norte 11 Noroeste 0 -- -- 67
2020-01-20 00:00:00 16.8 6 Noroeste 9 Noroeste 0 -- -- 73
2020-01-19 23:00:00 16.9 3 Norte 8 Oeste 0 -- -- 70
2020-01-19 22:00:00 17.4 3 Oeste 14 Nordeste 0 -- -- 67
2020-01-19 21:00:00 18.1 5 Este 18 Este 0 -- -- 65
2020-01-19 20:00:00 18.3 7 Nordeste 15 Este 0 -- -- 66
2020-01-19 19:00:00 18.8 4 Este 21 Este 0 -- -- 66
2020-01-19 18:00:00 20.5 6 Sur 25 Sudeste 0 -- -- 53
2020-01-19 17:00:00 21.6 13 Este 36 Este 0 -- -- 40
2020-01-19 16:00:00 20 17 Este 35 Este 0 -- -- 53
2020-01-19 15:00:00 19.7 19 Este 41 Este 0 -- -- 69
2020-01-19 14:00:00 19.5 24 Este 42 Este 0 -- -- 69
2020-01-19 13:00:00 19.6 22 Este 36 Este 0 -- -- 70
2020-01-19 12:00:00 20.7 16 Este 31 Este 0 -- -- 61
2020-01-19 11:00:00 22.2 13 Este 29 Este 0 -- -- 34
2020-01-19 10:00:00 22.5 8 Este 22 Este 0 -- -- 24
2020-01-19 09:00:00 20.8 8 Este 22 Nordeste 0 -- -- 23
2020-01-19 08:00:00 20.2 14 Nordeste 25 Nordeste 0 -- -- 20
2020-01-19 07:00:00 19.5 7 Este 16 Este 0 -- -- 21
2020-01-19 06:00:00 20.4 6 Este 23 Este 0 -- -- 22
2020-01-19 05:00:00 21.3 14 Nordeste 33 Nordeste 0 -- -- 18
2020-01-19 04:00:00 21.1 15 Nordeste 31 Este 0 -- -- 18
2020-01-19 03:00:00 20.9 14 Nordeste 33 Este 0 -- -- 19
2020-01-19 02:00:00 20.5 9 Este 28 Este 0 -- -- 20
2020-01-19 01:00:00 20.9 11 Nordeste 30 Nordeste 0 -- -- 18
2020-01-19 00:00:00 20.3 11 Nordeste 33 Este 0 -- -- 21
2020-01-18 23:00:00 21.3 10 Nordeste 28 Nordeste 0 -- -- 17
2020-01-18 22:00:00 21.2 14 Nordeste 33 Nordeste 0 -- -- 17
2020-01-18 21:00:00 20.6 11 Nordeste 27 Nordeste 0 -- -- 20
2020-01-18 20:00:00 20.5 9 Este 25 Nordeste 0 -- -- 22
2020-01-18 19:00:00 20.2 12 Nordeste 28 Este 0 -- -- 27
2020-01-18 18:00:00 19.6 15 Este 32 Este 0 -- -- 56
2020-01-18 17:00:00 20.3 15 Este 31 Este 0 -- -- 53
2020-01-18 16:00:00 20.5 15 Este 29 Este 0 -- -- 53
2020-01-18 15:00:00 20.8 14 Este 30 Este 0 -- -- 51
2020-01-18 14:00:00 20.6 16 Este 30 Este 0 -- -- 50
2020-01-18 13:00:00 21.2 13 Este 30 Nordeste 0 -- -- 43
2020-01-18 12:00:00 21.1 13 Este 32 Este 0 -- -- 41
2020-01-18 11:00:00 21.1 14 Este 32 Nordeste 0 -- -- 34
2020-01-18 10:00:00 20.5 13 Este 30 Nordeste 0 -- -- 33
2020-01-18 09:00:00 19.6 12 Este 34 Este 0 -- -- 34
2020-01-18 08:00:00 18.6 12 Este 33 Este 0 -- -- 36
2020-01-18 07:00:00 18.6 13 Nordeste 30 Nordeste 0 -- -- 37
2020-01-18 06:00:00 19.1 13 Este 33 Nordeste 0 -- -- 32
2020-01-18 05:00:00 19.7 13 Nordeste 28 Nordeste 0 -- -- 25
2020-01-18 04:00:00 19.9 12 Nordeste 27 Este 0 -- -- 22
2020-01-18 03:00:00 20.5 12 Nordeste 25 Este 0 -- -- 21
2020-01-18 02:00:00 16.5 7 Nordeste 14 Este 0 -- -- 38
2020-01-18 01:00:00 16 4 Oeste 10 Sudeste 0 -- -- 42
2020-01-18 00:00:00 16.5 3 Sudoeste 8 Noroeste 0 -- -- 36
2020-01-17 23:00:00 16.4 5 Oeste 9 Sudoeste 0 -- -- 46
2020-01-17 22:00:00 16.9 4 Sudoeste 7 Oeste 0 -- -- 39
2020-01-17 21:00:00 18.7 7 Este 15 Este 0 -- -- 34
2020-01-17 20:00:00 18.9 9 Nordeste 18 Este 0 -- -- 34
2020-01-17 19:00:00 18.6 7 Este 28 Este 0 -- -- 44
2020-01-17 18:00:00 18.8 12 Este 30 Este 0 -- -- 53
2020-01-17 17:00:00 19.5 14 Este 33 Este 0 -- -- 52
2020-01-17 16:00:00 19.7 16 Este 30 Este 0 -- -- 52
2020-01-17 15:00:00 19.7 15 Este 35 Este 0 -- -- 59
2020-01-17 14:00:00 19.9 15 Este 35 Este 0 -- -- 56
2020-01-17 13:00:00 19.9 13 Este 37 Este 0 -- -- 56
2020-01-17 12:00:00 19.9 14 Este 33 Este 0 -- -- 53
2020-01-17 11:00:00 19.7 14 Este 31 Este 0 -- -- 48
2020-01-17 10:00:00 18.9 14 Este 30 Este 0 -- -- 51
2020-01-17 09:00:00 17.8 11 Nordeste 25 Nordeste 0 -- -- 51
2020-01-17 08:00:00 16.7 9 Nordeste 19 Nordeste 0 -- -- 46
2020-01-17 07:00:00 16.5 10 Nordeste 25 Este 0 -- -- 49
2020-01-17 06:00:00 16.7 13 Nordeste 24 Este 0 -- -- 56
2020-01-17 05:00:00 17.2 10 Este 30 Este 0 -- -- 41
2020-01-17 04:00:00 17.6 11 Este 26 Este 0 -- -- 28
2020-01-17 03:00:00 18.6 10 Nordeste 30 Nordeste 0 -- -- 21
2020-01-17 02:00:00 17.8 10 Nordeste 22 Nordeste 0 -- -- 28
2020-01-17 01:00:00 17.4 6 Nordeste 14 Nordeste 0 -- -- 36
2020-01-17 00:00:00 16.4 5 Nordeste 10 Nordeste 0 -- -- 40
2020-01-16 23:00:00 16.2 2 Nordeste 13 Este 0 -- -- 48
2020-01-16 22:00:00 17.1 7 Nordeste 18 Este 0 -- -- 54
2020-01-16 21:00:00 17.4 9 Este 19 Este 0 -- -- 57
2020-01-16 20:00:00 17.8 9 Nordeste 22 Este 0 -- -- 55
2020-01-16 19:00:00 18.2 9 Este 22 Este 0 -- -- 54
2020-01-16 18:00:00 18.6 12 Este 26 Este 0 -- -- 53
2020-01-16 17:00:00 19.3 13 Este 23 Este 0 -- -- 51
2020-01-16 16:00:00 19.4 15 Este 29 Este 0 -- -- 52
2020-01-16 15:00:00 19.4 16 Sudeste 25 Sudeste 0 -- -- 51
2020-01-16 14:00:00 19.5 15 Este 24 Este 0 -- -- 50
2020-01-16 13:00:00 19.6 13 Este 22 Este 0 -- -- 60
2020-01-16 12:00:00 19.6 12 Este 19 Este 0 -- -- 57
2020-01-16 11:00:00 19.8 10 Este 21 Este 0 -- -- 57
2020-01-16 10:00:00 19.3 9 Este 19 Este 0 -- -- 58
2020-01-16 09:00:00 17.2 8 Nordeste 12 Nordeste 0 -- -- 59
2020-01-16 08:00:00 15.3 6 Nordeste 9 Este 0 -- -- 49
2020-01-16 07:00:00 15.2 4 Nordeste 10 Este 0 -- -- 36
2020-01-16 06:00:00 15 3 Norte 7 Nordeste 0 -- -- 35
2020-01-16 05:00:00 15.5 4 Nordeste 12 Norte 0 -- -- 33
2020-01-16 04:00:00 16.1 5 Nordeste 16 Nordeste 0 -- -- 49
2020-01-16 03:00:00 15.9 6 Nordeste 14 Nordeste 0 -- -- 44
2020-01-16 02:00:00 16 6 Nordeste 13 Este 0 -- -- 39
2020-01-16 01:00:00 16.1 4 Norte 8 Nordeste 0 -- -- 31
2020-01-16 00:00:00 17.1 5 Nordeste 10 Nordeste 0 -- -- 30
2020-01-15 23:00:00 16.8 4 Nordeste 8 Norte 0 -- -- 31
2020-01-15 22:00:00 16.7 4 Nordeste 15 Este 0 -- -- 41
2020-01-15 21:00:00 17.3 8 Nordeste 17 Nordeste 0 -- -- 55
2020-01-15 20:00:00 17.8 7 Este 13 Nordeste 0 -- -- 56
2020-01-15 19:00:00 18.3 6 Nordeste 17 Este 0 -- -- 40
2020-01-15 18:00:00 18.6 9 Este 22 Este 0 -- -- 52
2020-01-15 17:00:00 19.5 8 Este 23 Este 0 -- -- 53
2020-01-15 16:00:00 19.6 13 Este 25 Sudeste 0 -- -- 53
2020-01-15 15:00:00 19.5 15 Este 25 Este 0 -- -- 53
2020-01-15 14:00:00 19.6 14 Este 24 Este 0 -- -- 50
2020-01-15 13:00:00 20.2 9 Este 22 Este 0 -- -- 51
2020-01-15 12:00:00 19.8 13 Este 22 Este 0 -- -- 57
2020-01-15 11:00:00 20 8 Este 18 Este 0 -- -- 53
2020-01-15 10:00:00 19.3 7 Este 15 Este 0 -- -- 52
2020-01-15 09:00:00 16 5 Norte 11 Norte 0 -- -- 37
2020-01-15 08:00:00 14.9 6 Norte 10 Norte 0 -- -- 41
2020-01-15 07:00:00 15.5 5 Norte 8 Nordeste 0 -- -- 59
2020-01-15 06:00:00 15.4 5 Nordeste 9 Nordeste 0 -- -- 53
2020-01-15 05:00:00 15.8 4 Nordeste 9 Norte 0 -- -- 44
2020-01-15 04:00:00 15.6 5 Norte 9 Nordeste 0 -- -- 35
2020-01-15 03:00:00 15.5 6 Norte 9 Norte 0 -- -- 37
2020-01-15 02:00:00 16.1 4 Norte 16 Norte 0 -- -- 32
2020-01-15 01:00:00 16.5 9 Norte 15 Norte 0 -- -- 31
2020-01-15 00:00:00 16.5 8 Norte 12 Norte 0 -- -- 33
2020-01-14 23:00:00 16.3 6 Norte 8 Norte 0 -- -- 37
2020-01-14 22:00:00 16.6 3 Norte 6 Norte 0 -- -- 40
2020-01-14 21:00:00 17.1 4 Norte 6 Nordeste 0 -- -- 45
2020-01-14 20:00:00 17.4 4 Nordeste 10 Este 0 -- -- 52
2020-01-14 19:00:00 17.8 5 Este 11 Este 0 -- -- 52
2020-01-14 18:00:00 18.2 7 Sudeste 16 Sudeste 0 -- -- 51
2020-01-14 17:00:00 19.1 8 Sudeste 15 Sudeste 0 -- -- 50
2020-01-14 16:00:00 19.4 8 Sudeste 21 Sudeste 0 -- -- 48
2020-01-14 15:00:00 19.4 12 Sudeste 22 Sudeste 0 -- -- 48
2020-01-14 14:00:00 19.8 14 Sudeste 22 Sudeste 0 -- -- 48
2020-01-14 13:00:00 20.1 9 Sudeste 20 Sudeste 0 -- -- 44
2020-01-14 12:00:00 19.8 11 Sudeste 21 Sudeste 0 -- -- 45
2020-01-14 11:00:00 19.7 13 Sudeste 20 Este 0 -- -- 47
2020-01-14 10:00:00 19.8 9 Sudeste 15 Sudeste 0 -- -- 48
2020-01-14 09:00:00 19 6 Sudeste 12 Este 0 -- -- 51
2020-01-14 08:00:00 16.7 5 Sudeste 12 Nordeste 0 -- -- 64
2020-01-14 07:00:00 16.5 4 Nordeste 10 Nordeste 0 -- -- 65
2020-01-14 06:00:00 17.1 7 Nordeste 15 Nordeste 0 -- -- 62
2020-01-14 05:00:00 16.8 6 Nordeste 12 Nordeste 0 -- -- 59
2020-01-14 04:00:00 17 5 Nordeste 11 Nordeste 0 -- -- 38
2020-01-14 03:00:00 16.8 6 Nordeste 16 Este 0 -- -- 54
2020-01-14 02:00:00 17.1 8 Nordeste 17 Este 0 -- -- 70
2020-01-14 01:00:00 17.3 10 Nordeste 17 Este 0 -- -- 61
2020-01-14 00:00:00 17.2 5 Norte 11 Norte 0 -- -- 31
2020-01-13 23:00:00 18.3 8 Norte 17 Noroeste 0 -- -- 29
2020-01-13 22:00:00 18.5 6 Norte 13 Norte 0 -- -- 30
2020-01-13 21:00:00 18.6 7 Norte 13 Norte 0 -- -- 32
2020-01-13 20:00:00 18.7 3 Norte 8 Norte 0 -- -- 38
2020-01-13 19:00:00 18.7 3 Nordeste 9 Norte 0 -- -- 43
2020-01-13 18:00:00 19.2 4 Nordeste 10 Nordeste 0 -- -- 47
2020-01-13 17:00:00 19.6 6 Este 18 Sudeste 0 -- -- 50
2020-01-13 16:00:00 19.8 12 Sudeste 22 Este 0 -- -- 49
2020-01-13 15:00:00 19.6 13 Sudeste 22 Este 0 -- -- 58
2020-01-13 14:00:00 20.3 7 Este 20 Sudeste 0 -- -- 58
2020-01-13 13:00:00 20.2 7 Este 28 Este 0 -- -- 54
2020-01-13 12:00:00 20.1 11 Este 27 Este 0 -- -- 66
2020-01-13 11:00:00 19.7 13 Este 26 Sudeste 0 -- -- 63
2020-01-13 10:00:00 20.3 9 Este 20 Este 0 -- -- 52
2020-01-13 09:00:00 19 8 Este 23 Nordeste 0 -- -- 53
2020-01-13 08:00:00 17.7 12 Nordeste 26 Nordeste 0 -- -- 61
2020-01-13 07:00:00 17.6 12 Nordeste 36 Nordeste 0 -- -- 62
2020-01-13 06:00:00 18 15 Este 32 Nordeste 0 -- -- 60
2020-01-13 05:00:00 18.1 17 Nordeste 36 Nordeste 0 -- -- 54
2020-01-13 04:00:00 18.5 13 Nordeste 33 Nordeste 0 -- -- 46
2020-01-13 03:00:00 18.8 14 Nordeste 31 Nordeste 0 -- -- 43
2020-01-13 02:00:00 19.2 13 Nordeste 35 Nordeste 0 -- -- 35
2020-01-13 01:00:00 19.6 15 Nordeste 37 Nordeste 0 -- -- 31
2020-01-13 00:00:00 19.1 13 Nordeste 24 Norte 0 -- -- 31
2020-01-12 23:00:00 19.3 10 Nordeste 22 Este 0 -- -- 30
2020-01-12 22:00:00 18.8 6 Nordeste 22 Nordeste 0 -- -- 31
2020-01-12 21:00:00 18.9 10 Nordeste 25 Nordeste 0 -- -- 32
2020-01-12 20:00:00 17.9 15 Nordeste 39 Nordeste 0 -- -- 48
2020-01-12 19:00:00 18.5 6 Este 22 Este 0 -- -- 56
2020-01-12 18:00:00 18.9 9 Este 31 Este 0 -- -- 54
2020-01-12 17:00:00 19.7 13 Nordeste 36 Este 0 -- -- 52
2020-01-12 16:00:00 19.7 15 Este 37 Este 0 -- -- 48
2020-01-12 15:00:00 20.2 16 Este 35 Este 0 -- -- 45
2020-01-12 14:00:00 20.4 14 Este 35 Este 0 -- -- 42
2020-01-12 13:00:00 19.9 16 Este 41 Nordeste 0 -- -- 56
2020-01-12 12:00:00 19.9 19 Este 42 Nordeste 0 -- -- 50
2020-01-12 11:00:00 19.5 16 Nordeste 33 Nordeste 0 -- -- 54
2020-01-12 10:00:00 18.4 10 Nordeste 27 Norte 0 -- -- 54
2020-01-12 09:00:00 15.5 9 Norte 17 Noroeste 0 -- -- 65
2020-01-12 08:00:00 15.4 6 Norte 12 Nordeste 0 -- -- 65
2020-01-12 07:00:00 16.9 9 Nordeste 29 Nordeste 0 -- -- 61
2020-01-12 06:00:00 17 17 Nordeste 28 Nordeste 0 -- -- 65
2020-01-12 05:00:00 16 6 Norte 11 Norte 0 -- -- 67
2020-01-12 04:00:00 16.8 6 Noroeste 19 Nordeste 0 -- -- 65
2020-01-12 03:00:00 17.2 7 Nordeste 19 Este 0 -- -- 64
2020-01-12 02:00:00 17.6 5 Oeste 12 Nordeste 0 -- -- 64
2020-01-12 01:00:00 18.1 6 Noroeste 10 Oeste 0 -- -- 64
2020-01-12 00:00:00 17.5 6 Norte 18 Este 0 -- -- 64
2020-01-11 23:00:00 18.2 5 Norte 23 Este 0 -- -- 61
2020-01-11 22:00:00 18.2 5 Nordeste 16 Este 0 -- -- 56
2020-01-11 21:00:00 18.4 9 Nordeste 18 Nordeste 0 -- -- 56
2020-01-11 20:00:00 18.3 9 Nordeste 19 Este 0 -- -- 59
2020-01-11 19:00:00 18.6 9 Nordeste 20 Este 0 -- -- 62
2020-01-11 18:00:00 18.8 7 Este 19 Este 0 -- -- 63
2020-01-11 17:00:00 19.8 8 Sudoeste 19 Sudoeste 0 -- -- 61
2020-01-11 16:00:00 19.9 12 Sudoeste 21 Oeste 0 -- -- 61
2020-01-11 15:00:00 20.5 11 Oeste 24 Sudoeste 0 -- -- 57
2020-01-11 14:00:00 21.2 13 Sudoeste 22 Oeste 0 -- -- 54
2020-01-11 13:00:00 21 6 Oeste 18 Oeste 0 -- -- 53
2020-01-11 12:00:00 19.7 9 Sur 23 Este 0 -- -- 60
2020-01-11 11:00:00 20.3 5 Noroeste 12 Noroeste 0 -- -- 57
2020-01-11 10:00:00 18.7 4 Sur 13 Oeste 0 -- -- 62
2020-01-11 09:00:00 17.1 5 Norte 12 Noroeste 0 -- -- 67
2020-01-11 08:00:00 15.9 2 Nordeste 10 Norte 0 -- -- 71
2020-01-11 07:00:00 15.2 4 Norte 9 Norte 0 -- -- 74
2020-01-11 06:00:00 15.1 4 Nordeste 13 Noroeste 0 -- -- 72
2020-01-11 05:00:00 15.4 5 Nordeste 15 Norte 0 -- -- 71
2020-01-11 04:00:00 15.4 4 Noroeste 12 Norte 0 -- -- 74
2020-01-11 03:00:00 15.8 4 Norte 9 Norte 0 -- -- 73
2020-01-11 02:00:00 16.3 5 Noroeste 9 Noroeste 0 -- -- 73
2020-01-11 01:00:00 16.7 3 Norte 18 Nordeste 0 -- -- 73
2020-01-11 00:00:00 17.1 5 Norte 11 Noroeste 0 -- -- 72
2020-01-10 23:00:00 17.5 4 Nordeste 8 Nordeste 0 -- -- 66
2020-01-10 22:00:00 18.1 4 Nordeste 10 Nordeste 0 -- -- 62
2020-01-10 21:00:00 18.7 6 Nordeste 15 Nordeste 0 -- -- 60
2020-01-10 20:00:00 19.1 11 Nordeste 26 Norte 0 -- -- 55
2020-01-10 19:00:00 19.3 11 Nordeste 28 Nordeste 0 -- -- 58
2020-01-10 18:00:00 20 13 Nordeste 36 Nordeste 0 -- -- 57
2020-01-10 17:00:00 20.5 18 Nordeste 36 Nordeste 0 -- -- 56
2020-01-10 16:00:00 21.2 10 Nordeste 28 Oeste 0 -- -- 55
2020-01-10 15:00:00 20.9 12 Noroeste 26 Sudoeste 0 -- -- 57
2020-01-10 14:00:00 21 6 Sudoeste 39 Sudoeste 0 -- -- 59
2020-01-10 13:00:00 21.6 13 Nordeste 33 Norte 0 -- -- 55
2020-01-10 12:00:00 21 13 Sudoeste 24 Este 0 -- -- 57
2020-01-10 11:00:00 20 5 Noroeste 16 Este 0 -- -- 59
2020-01-10 10:00:00 18.1 4 Norte 15 Norte 0 -- -- 62
2020-01-10 09:00:00 16.6 4 Norte 10 Norte 0 -- -- 64
2020-01-10 08:00:00 15.6 7 Norte 26 Nordeste 0 -- -- 67
2020-01-10 07:00:00 17.2 12 Nordeste 22 Nordeste 0 -- -- 70
2020-01-10 06:00:00 16.6 6 Nordeste 25 Oeste 0 -- -- 63
2020-01-10 05:00:00 16 9 Norte 19 Noroeste 0 -- -- 66
2020-01-10 04:00:00 15.5 5 Norte 13 Noroeste 0 -- -- 69
2020-01-10 03:00:00 15.7 8 Norte 14 Norte 0 -- -- 69
2020-01-10 02:00:00 16.4 6 Noroeste 12 Noroeste 0 -- -- 67
2020-01-10 01:00:00 16.2 7 Norte 15 Noroeste 0 -- -- 67
2020-01-10 00:00:00 16.6 5 Norte 13 Norte 0 -- -- 66
2020-01-09 23:00:00 16.9 5 Norte 13 Sudeste 0 -- -- 65
2020-01-09 22:00:00 17.5 6 Norte 24 Este 0 -- -- 63
2020-01-09 21:00:00 18.2 11 Nordeste 21 Nordeste 0 -- -- 60
2020-01-09 20:00:00 18.1 3 Norte 9 Sudoeste 0 -- -- 64
2020-01-09 19:00:00 18.8 2 Sudeste 13 Oeste 0 -- -- 62
2020-01-09 18:00:00 19.7 8 Oeste 19 Sudoeste 0 -- -- 58
2020-01-09 17:00:00 20.9 12 Sudoeste 26 Sudoeste 0 -- -- 53
2020-01-09 16:00:00 21.2 15 Sudoeste 25 Sudoeste 0 -- -- 52
2020-01-09 15:00:00 21.7 14 Sudoeste 23 Oeste 0 -- -- 46
2020-01-09 14:00:00 21.2 12 Oeste 22 Sudoeste 0 -- -- 50
2020-01-09 13:00:00 20.8 13 Oeste 23 Oeste 0 -- -- 53
2020-01-09 12:00:00 20.6 10 Sudoeste 24 Sudoeste 0 -- -- 54
2020-01-09 11:00:00 20.2 6 Sudoeste 14 Sudoeste 0 -- -- 55
2020-01-09 10:00:00 18.5 5 Nordeste 16 Norte 0 -- -- 59
2020-01-09 09:00:00 15.9 5 Noroeste 12 Noroeste 0 -- -- 53
2020-01-09 08:00:00 14.9 9 Noroeste 14 Noroeste 0 -- -- 56
2020-01-09 07:00:00 14.9 3 Este 13 Norte 0 -- -- 58
2020-01-09 06:00:00 15.3 6 Noroeste 12 Noroeste 0 -- -- 56
2020-01-09 05:00:00 16 4 Noroeste 14 Nordeste 0 -- -- 56
2020-01-09 04:00:00 16.7 4 Nordeste 21 Nordeste 0 -- -- 56
2020-01-09 03:00:00 17.4 9 Nordeste 28 Norte 0 -- -- 55
2020-01-09 02:00:00 17.4 17 Nordeste 34 Nordeste 0 -- -- 61
2020-01-09 01:00:00 17.5 13 Nordeste 31 Este 0 -- -- 60
2020-01-09 00:00:00 17.6 15 Nordeste 29 Norte 0 -- -- 63
2020-01-08 23:00:00 17.6 10 Nordeste 22 Nordeste 0 -- -- 54
2020-01-08 22:00:00 17.6 9 Este 24 Nordeste 0 -- -- 60
2020-01-08 21:00:00 17.8 7 Este 20 Nordeste 0 -- -- 62
2020-01-08 20:00:00 18 11 Nordeste 34 Este 0 -- -- 60
2020-01-08 19:00:00 18.4 13 Nordeste 34 Nordeste 0 -- -- 61
2020-01-08 18:00:00 19.4 13 Nordeste 37 Este 0 -- -- 55
2020-01-08 17:00:00 20.1 14 Este 37 Este 0 -- -- 56
2020-01-08 16:00:00 20.7 16 Este 38 Este 0 -- -- 55
2020-01-08 15:00:00 19.7 19 Este 39 Este 0 -- -- 67
2020-01-08 14:00:00 19.5 18 Este 37 Este 0 -- -- 66
2020-01-08 13:00:00 18.6 13 Este 31 Este 0 -- -- 72
2020-01-08 12:00:00 19.5 15 Este 35 Sudeste 0 -- -- 66
2020-01-08 11:00:00 18.8 15 Este 29 Este 0 -- -- 67
2020-01-08 10:00:00 18.3 13 Este 26 Este 0 -- -- 62
2020-01-08 09:00:00 17.7 11 Nordeste 27 Nordeste 0 -- -- 66
2020-01-08 08:00:00 16.9 9 Nordeste 22 Nordeste 0 -- -- 65
2020-01-08 07:00:00 17 9 Nordeste 24 Nordeste 0 -- -- 62
2020-01-08 06:00:00 16.9 9 Nordeste 23 Nordeste 0 -- -- 65
2020-01-08 05:00:00 17.2 10 Nordeste 24 Nordeste 0 -- -- 61
2020-01-08 04:00:00 17.2 12 Nordeste 28 Nordeste 0 -- -- 65
2020-01-08 03:00:00 17.3 11 Nordeste 28 Nordeste 0 -- -- 60
2020-01-08 02:00:00 17.2 8 Nordeste 18 Este 0 -- -- 61
2020-01-08 01:00:00 16.8 6 Nordeste 15 Este 0 -- -- 62
2020-01-08 00:00:00 17.6 9 Este 23 Este 0 -- -- 66
2020-01-07 23:00:00 17.8 8 Este 21 Este 0 -- -- 65
2020-01-07 22:00:00 18.1 9 Nordeste 23 Nordeste 0 -- -- 64
2020-01-07 21:00:00 18.2 8 Nordeste 19 Este 0 -- -- 60
2020-01-07 20:00:00 18.4 8 Nordeste 22 Nordeste 0 -- -- 60
2020-01-07 19:00:00 18.9 12 Nordeste 28 Nordeste 0 -- -- 52
2020-01-07 18:00:00 19.7 15 Nordeste 28 Nordeste 0 -- -- 40
2020-01-07 17:00:00 20.7 12 Este 28 Este 0 -- -- 39
2020-01-07 16:00:00 20.8 14 Este 32 Nordeste 0 -- -- 36
2020-01-07 15:00:00 20.9 14 Este 30 Este 0 -- -- 37
2020-01-07 14:00:00 20.6 15 Este 33 Nordeste 0 -- -- 40
2020-01-07 13:00:00 19.9 15 Este 35 Nordeste 0 -- -- 55
2020-01-07 12:00:00 19.8 15 Este 31 Nordeste 0 -- -- 54
2020-01-07 11:00:00 19.3 13 Nordeste 37 Este 0 -- -- 56
2020-01-07 10:00:00 18.5 18 Nordeste 33 Nordeste 0 -- -- 60
2020-01-07 09:00:00 17.5 12 Nordeste 26 Nordeste 0 -- -- 64
2020-01-07 08:00:00 16.9 13 Nordeste 26 Nordeste 0 -- -- 68
2020-01-07 07:00:00 16.9 12 Nordeste 26 Nordeste 0 -- -- 66
2020-01-07 06:00:00 17.2 12 Nordeste 24 Nordeste 0 -- -- 65
2020-01-07 05:00:00 17.3 10 Este 25 Nordeste 0 -- -- 70
2020-01-07 04:00:00 17.3 12 Este 32 Nordeste 0 -- -- 69
2020-01-07 03:00:00 17.8 16 Nordeste 33 Nordeste 0 -- -- 60
2020-01-07 02:00:00 17.7 12 Nordeste 28 Este 0 -- -- 65
2020-01-07 01:00:00 17.9 15 Nordeste 31 Nordeste 0 -- -- 62
2020-01-07 00:00:00 18 11 Nordeste 33 Este 0 -- -- 58
2020-01-06 23:00:00 18.2 17 Nordeste 35 Nordeste 0 -- -- 58
2020-01-06 22:00:00 18.3 16 Nordeste 35 Nordeste 0 -- -- 62
2020-01-06 21:00:00 18.5 4 Nordeste 11 Nordeste 0 -- -- 59
2020-01-06 20:00:00 18.3 4 Sur 10 Sudoeste 0 -- -- 64
2020-01-06 19:00:00 18.8 9 Sudoeste 19 Oeste 0 -- -- 65
2020-01-06 18:00:00 19.7 5 Oeste 30 Oeste 0 -- -- 57
2020-01-06 17:00:00 20.5 17 Oeste 32 Oeste 0 -- -- 56
2020-01-06 16:00:00 21.5 13 Oeste 32 Sudoeste 0 -- -- 52
2020-01-06 15:00:00 21.8 15 Sudoeste 29 Sudoeste 0 -- -- 49
2020-01-06 14:00:00 21.2 16 Oeste 29 Sudoeste 0 -- -- 49
2020-01-06 13:00:00 20.9 14 Oeste 27 Sudoeste 0 -- -- 49
2020-01-06 12:00:00 20.9 10 Oeste 27 Sudoeste 0 -- -- 48
2020-01-06 11:00:00 20.9 7 Este 27 Nordeste 0 -- -- 47
2020-01-06 10:00:00 19.3 9 Noroeste 15 Norte 0 -- -- 52
2020-01-06 09:00:00 17.4 5 Norte 18 Nordeste 0 -- -- 55